createdAt,value
2023-03-02T00:01:23.809Z,54.52
2023-03-02T00:03:52.258Z,54.30
2023-03-02T00:06:20.433Z,54.68
2023-03-02T00:08:48.697Z,54.97
2023-03-02T00:11:16.787Z,54.76
2023-03-02T00:13:46.458Z,54.80
2023-03-02T00:16:14.471Z,54.96
2023-03-02T00:18:42.698Z,54.69
2023-03-02T00:21:11.258Z,54.76
2023-03-02T00:23:39.572Z,54.95
2023-03-02T00:26:07.857Z,54.92
2023-03-02T00:28:36.173Z,54.81
2023-03-02T00:31:06.876Z,54.51
2023-03-02T00:33:35.619Z,55.23
2023-03-02T00:36:04.360Z,54.89
2023-03-02T00:38:32.684Z,54.59
2023-03-02T00:41:00.683Z,55.59
2023-03-02T00:43:29.795Z,55.37
2023-03-02T00:45:58.909Z,55.38
2023-03-02T00:48:28.479Z,55.24
2023-03-02T00:50:56.478Z,54.81
2023-03-02T00:53:24.750Z,54.85
2023-03-02T00:55:56.695Z,54.79
2023-03-02T00:58:26.877Z,55.03
2023-03-02T01:00:56.281Z,55.42
2023-03-02T01:03:24.964Z,55.22
2023-03-02T01:05:55.281Z,55.41
2023-03-02T01:08:25.038Z,55.33
2023-03-02T01:10:54.427Z,55.32
2023-03-02T01:13:22.754Z,55.17
2023-03-02T01:15:50.880Z,55.32
2023-03-02T01:18:19.346Z,55.44
2023-03-02T01:20:47.407Z,55.42
2023-03-02T01:23:16.954Z,55.42
2023-03-02T01:25:44.976Z,55.66
2023-03-02T01:28:15.254Z,55.72
2023-03-02T01:30:43.234Z,56.20
2023-03-02T01:33:11.522Z,56.16
2023-03-02T01:35:39.658Z,55.96
2023-03-02T01:38:08.060Z,56.26
2023-03-02T01:40:37.532Z,56.08
2023-03-02T01:43:12.473Z,55.97
2023-03-02T01:45:51.697Z,56.04
2023-03-02T01:48:29.272Z,56.25
2023-03-02T01:50:58.521Z,56.77
2023-03-02T01:53:29.480Z,56.33
2023-03-02T01:55:59.698Z,57.31
2023-03-02T01:58:28.512Z,57.94
2023-03-02T02:00:57.583Z,57.75
2023-03-02T02:03:28.653Z,57.93
2023-03-02T02:06:02.762Z,57.06
2023-03-02T02:08:31.614Z,57.34
2023-03-02T02:11:01.697Z,57.22
2023-03-02T02:13:30.225Z,56.38
2023-03-02T02:15:58.410Z,56.40
2023-03-02T02:18:27.361Z,56.43
2023-03-02T02:20:56.710Z,56.66
2023-03-02T02:23:28.144Z,56.45
2023-03-02T02:26:06.612Z,57.08
2023-03-02T02:28:37.357Z,56.31
2023-03-02T02:31:09.174Z,56.09
2023-03-02T02:33:38.324Z,56.45
2023-03-02T02:36:09.385Z,56.54
2023-03-02T02:38:40.878Z,56.46
2023-03-02T02:41:14.204Z,57.54
2023-03-02T02:43:42.501Z,57.25
2023-03-02T02:46:11.704Z,57.74
2023-03-02T02:48:40.467Z,58.24
2023-03-02T02:51:09.525Z,58.13
2023-03-02T02:53:43.016Z,58.10
2023-03-02T02:56:13.064Z,57.15
2023-03-02T02:58:44.792Z,57.39
2023-03-02T03:01:15.234Z,57.37
2023-03-02T03:03:47.139Z,57.46
2023-03-02T03:06:18.641Z,57.67
2023-03-02T03:08:56.881Z,57.90
2023-03-02T03:11:35.768Z,58.11
2023-03-02T03:14:07.491Z,58.57
2023-03-02T03:16:37.123Z,58.61
2023-03-02T03:19:10.897Z,59.04
2023-03-02T03:21:38.934Z,58.98
2023-03-02T03:24:08.448Z,58.72
2023-03-02T03:26:38.283Z,58.88
2023-03-02T03:29:07.458Z,59.29
2023-03-02T03:31:36.273Z,59.78
2023-03-02T03:34:05.895Z,60.07
2023-03-02T03:36:37.554Z,60.07
2023-03-02T03:39:06.968Z,60.26
2023-03-02T03:41:35.206Z,60.55
2023-03-02T03:44:05.279Z,60.46
2023-03-02T03:46:36.417Z,60.75
2023-03-02T03:49:05.533Z,61.29
2023-03-02T03:51:35.394Z,61.79
2023-03-02T03:54:08.218Z,61.75
2023-03-02T03:56:42.310Z,61.84
2023-03-02T03:59:15.809Z,61.68
2023-03-02T04:01:53.463Z,61.36
2023-03-02T04:04:24.466Z,61.43
2023-03-02T04:06:53.229Z,61.47
2023-03-02T04:09:22.610Z,61.86
2023-03-02T04:11:52.272Z,61.67
2023-03-02T04:14:23.862Z,61.76
2023-03-02T04:16:53.392Z,61.77
2023-03-02T04:19:24.234Z,62.14
2023-03-02T04:21:56.912Z,62.35
2023-03-02T04:24:25.644Z,61.88
2023-03-02T04:26:56.945Z,61.77
2023-03-02T04:29:27.231Z,62.10
2023-03-02T04:31:55.661Z,62.15
2023-03-02T04:34:26.445Z,61.96
2023-03-02T04:36:54.620Z,62.38
2023-03-02T04:39:23.563Z,61.99
2023-03-02T04:41:53.973Z,62.02
2023-03-02T04:44:22.577Z,62.38
2023-03-02T04:46:52.044Z,62.24
2023-03-02T04:49:21.129Z,62.49
2023-03-02T04:51:50.337Z,62.50
2023-03-02T04:54:20.766Z,62.15
2023-03-02T04:56:49.502Z,61.81
2023-03-02T04:59:17.930Z,62.01
2023-03-02T05:01:46.013Z,61.77
2023-03-02T05:04:16.021Z,61.83
2023-03-02T05:06:44.137Z,61.39
2023-03-02T05:09:12.374Z,61.30
2023-03-02T05:11:40.835Z,61.34
2023-03-02T05:14:10.834Z,61.68
2023-03-02T05:16:40.517Z,61.72
2023-03-02T05:19:10.723Z,61.53
2023-03-02T05:21:40.166Z,61.68
2023-03-02T05:24:08.495Z,61.94
2023-03-02T05:26:36.504Z,62.07
2023-03-02T05:29:05.105Z,61.67
2023-03-02T05:31:35.973Z,61.44
2023-03-02T05:34:05.547Z,61.70
2023-03-02T05:36:34.209Z,61.94
2023-03-02T05:39:05.034Z,61.49
2023-03-02T05:41:33.228Z,61.68
2023-03-02T05:44:01.608Z,62.02
2023-03-02T05:46:29.893Z,62.20
2023-03-02T05:48:58.202Z,62.38
2023-03-02T05:51:26.190Z,62.14
2023-03-02T05:53:54.549Z,62.08
2023-03-02T05:56:23.810Z,62.32
2023-03-02T05:58:52.085Z,62.40
2023-03-02T06:01:20.129Z,62.09
2023-03-02T06:03:48.396Z,62.12
2023-03-02T06:06:16.488Z,62.69
2023-03-02T06:08:47.157Z,62.29
2023-03-02T06:11:15.649Z,62.50
2023-03-02T06:13:45.304Z,63.59
2023-03-02T06:16:13.376Z,63.38
2023-03-02T06:18:41.874Z,62.51
2023-03-02T06:21:10.129Z,63.01
2023-03-02T06:23:38.388Z,63.11
2023-03-02T06:26:09.175Z,63.27
2023-03-02T06:28:49.744Z,62.86
2023-03-02T06:31:20.747Z,62.20
2023-03-02T06:33:49.110Z,62.43
2023-03-02T06:36:17.584Z,62.93
2023-03-02T06:38:46.160Z,63.51
2023-03-02T06:41:14.193Z,63.31
2023-03-02T06:43:42.719Z,62.56
2023-03-02T06:46:10.782Z,62.48
2023-03-02T06:48:40.542Z,63.09
2023-03-02T06:51:09.008Z,63.29
2023-03-02T06:53:37.335Z,63.16
2023-03-02T06:56:06.245Z,63.36
2023-03-02T06:58:34.531Z,63.12
2023-03-02T07:01:02.584Z,62.76
2023-03-02T07:03:30.952Z,62.55
2023-03-02T07:06:00.549Z,62.56
2023-03-02T07:08:28.907Z,61.79
2023-03-02T07:10:56.936Z,61.92
2023-03-02T07:13:25.383Z,61.67
2023-03-02T07:15:54.804Z,61.75
2023-03-02T07:18:23.193Z,61.26
2023-03-02T07:20:51.294Z,60.88
2023-03-02T07:23:21.545Z,60.67
2023-03-02T07:25:49.594Z,60.72
2023-03-02T07:28:17.890Z,61.88
2023-03-02T07:30:45.969Z,61.30
2023-03-02T07:33:14.380Z,60.96
2023-03-02T07:35:42.543Z,60.85
2023-03-02T07:38:10.806Z,61.08
2023-03-02T07:40:42.572Z,61.00
2023-03-02T07:43:11.340Z,61.14
2023-03-02T07:45:39.449Z,61.10
2023-03-02T07:48:07.975Z,60.96
2023-03-02T07:50:36.208Z,60.89
2023-03-02T07:53:04.577Z,61.30
2023-03-02T07:55:32.666Z,61.33
2023-03-02T07:58:02.315Z,61.09
2023-03-02T08:00:30.393Z,60.66
2023-03-02T08:02:58.849Z,60.70
2023-03-02T08:05:27.137Z,61.26
2023-03-02T08:07:55.430Z,61.47
2023-03-02T08:10:23.967Z,62.03
2023-03-02T08:12:52.305Z,62.04
2023-03-02T08:15:21.770Z,60.89
2023-03-02T08:17:50.057Z,60.70
2023-03-02T08:20:18.197Z,59.66
2023-03-02T08:22:46.429Z,59.05
2023-03-02T08:25:14.531Z,59.50
2023-03-02T08:27:42.789Z,59.09
2023-03-02T08:30:12.490Z,58.72
2023-03-02T08:32:42.364Z,58.66
2023-03-02T08:35:10.838Z,58.93
2023-03-02T08:37:39.188Z,58.82
2023-03-02T08:40:09.009Z,57.28
2023-03-02T08:42:37.305Z,57.55
2023-03-02T08:45:06.667Z,57.00
2023-03-02T08:47:35.026Z,56.72
2023-03-02T08:50:04.875Z,56.86
2023-03-02T08:52:33.985Z,56.85
2023-03-02T08:55:03.726Z,56.35
2023-03-02T08:57:32.472Z,55.48
2023-03-02T09:00:00.695Z,55.12
2023-03-02T09:02:29.011Z,54.84
2023-03-02T09:04:57.098Z,54.25
2023-03-02T09:07:26.724Z,54.06
2023-03-02T09:09:54.746Z,54.56
2023-03-02T09:12:23.080Z,54.18
2023-03-02T09:14:51.230Z,53.74
2023-03-02T09:17:19.480Z,54.05
2023-03-02T09:19:47.668Z,53.79
2023-03-02T09:22:15.941Z,54.07
2023-03-02T09:24:45.363Z,54.18
2023-03-02T09:27:13.809Z,53.44
2023-03-02T09:29:42.065Z,52.81
2023-03-02T09:32:10.936Z,52.54
2023-03-02T09:34:39.297Z,53.29
2023-03-02T09:37:07.546Z,52.84
2023-03-02T09:39:35.677Z,52.93
2023-03-02T09:42:13.775Z,53.41
2023-03-02T09:44:50.047Z,52.60
2023-03-02T09:47:34.891Z,52.54
2023-03-02T09:50:12.201Z,52.58
2023-03-02T09:52:42.319Z,52.48
2023-03-02T09:55:15.042Z,52.02
2023-03-02T09:57:46.249Z,52.39
2023-03-02T10:00:19.905Z,51.97
2023-03-02T10:02:50.449Z,52.14
2023-03-02T10:05:22.843Z,51.97
2023-03-02T10:07:51.306Z,51.72
2023-03-02T10:10:25.849Z,51.22
2023-03-02T10:13:04.142Z,51.22
2023-03-02T10:15:37.688Z,51.04
2023-03-02T10:18:14.878Z,51.10
2023-03-02T10:20:47.257Z,50.62
2023-03-02T10:23:38.226Z,50.49
2023-03-02T10:26:14.690Z,50.61
2023-03-02T10:28:49.306Z,50.29
2023-03-02T10:31:22.643Z,50.43
2023-03-02T10:33:50.984Z,49.75
2023-03-02T10:36:24.041Z,50.11
2023-03-02T10:38:53.174Z,50.08
2023-03-02T10:41:24.445Z,50.00
2023-03-02T10:43:57.133Z,49.91
2023-03-02T10:46:25.243Z,49.55
2023-03-02T10:48:56.162Z,49.39
2023-03-02T10:51:26.942Z,49.51
2023-03-02T10:54:06.321Z,49.00
2023-03-02T10:56:35.197Z,48.68
2023-03-02T10:59:32.058Z,48.68
2023-03-02T11:02:02.455Z,48.85
2023-03-02T11:04:31.111Z,48.36
2023-03-02T11:07:08.934Z,48.35
2023-03-02T11:09:37.204Z,47.67
2023-03-02T11:12:05.696Z,47.64
2023-03-02T11:14:35.436Z,47.68
2023-03-02T11:17:03.707Z,47.65
2023-03-02T11:19:35.849Z,47.87
2023-03-02T11:22:07.522Z,47.50
2023-03-02T11:24:40.289Z,47.10
2023-03-02T11:27:13.916Z,46.90
2023-03-02T11:29:46.642Z,46.47
2023-03-02T11:32:18.547Z,46.54
2023-03-02T11:34:50.594Z,46.01
2023-03-02T11:37:21.467Z,46.16
2023-03-02T11:40:06.248Z,45.40
2023-03-02T11:42:36.284Z,45.34
2023-03-02T11:45:17.945Z,45.36
2023-03-02T11:47:54.174Z,44.71
2023-03-02T11:50:26.930Z,44.20
2023-03-02T11:52:58.995Z,44.30
2023-03-02T11:55:28.819Z,44.15
2023-03-02T12:00:36.101Z,43.92
2023-03-02T12:03:05.717Z,43.42
2023-03-02T12:05:39.682Z,43.25
2023-03-02T12:08:14.577Z,43.47
2023-03-02T12:10:45.417Z,43.21
2023-03-02T12:13:18.839Z,42.45
2023-03-02T12:15:50.601Z,41.74
2023-03-02T12:18:55.344Z,41.83
2023-03-02T12:21:25.050Z,48.57
2023-03-02T12:23:59.410Z,40.65
2023-03-02T12:26:36.547Z,37.36
2023-03-02T12:29:24.062Z,36.49
2023-03-02T12:31:55.337Z,36.59
2023-03-02T12:34:33.935Z,34.67
2023-03-02T12:37:50.068Z,34.09
2023-03-02T12:40:34.561Z,32.13
2023-03-02T12:43:19.587Z,31.03
2023-03-02T12:46:00.835Z,29.69
2023-03-02T12:48:32.406Z,28.59
2023-03-02T12:51:02.832Z,28.96
2023-03-02T12:53:31.908Z,27.62
2023-03-02T12:56:00.595Z,26.50
2023-03-02T12:58:30.112Z,25.91
2023-03-02T13:00:59.572Z,25.18
2023-03-02T13:03:31.435Z,24.96
2023-03-02T13:06:04.171Z,24.13
2023-03-02T13:08:33.565Z,23.21
2023-03-02T13:11:02.603Z,23.68
2023-03-02T13:13:37.060Z,24.06
2023-03-02T13:16:08.093Z,23.46
2023-03-02T13:18:39.604Z,24.50
2023-03-02T13:21:07.918Z,24.94
2023-03-02T13:23:36.183Z,25.02
2023-03-02T13:26:06.314Z,25.70
2023-03-02T13:28:35.821Z,23.79
2023-03-02T13:31:07.540Z,23.27
2023-03-02T13:33:44.973Z,23.11
2023-03-02T13:36:18.908Z,23.19
2023-03-02T13:38:49.520Z,22.61
2023-03-02T13:41:23.145Z,21.50
2023-03-02T13:43:51.493Z,22.58
2023-03-02T13:46:28.762Z,22.77
2023-03-02T13:49:09.667Z,22.39
2023-03-02T13:51:41.124Z,21.91
2023-03-02T13:54:18.022Z,21.55
2023-03-02T13:56:46.135Z,21.62
2023-03-02T13:59:16.280Z,22.45
2023-03-02T14:01:44.773Z,21.34
2023-03-02T14:04:16.491Z,21.40
2023-03-02T14:06:44.747Z,22.11
2023-03-02T14:09:13.032Z,21.61
2023-03-02T14:11:43.382Z,21.27
2023-03-02T14:14:14.741Z,20.56
2023-03-02T14:16:42.920Z,20.83
2023-03-02T14:19:13.446Z,19.75
2023-03-02T14:21:44.246Z,18.70
2023-03-02T14:24:12.745Z,19.27
2023-03-02T14:26:43.485Z,20.02
2023-03-02T14:29:21.030Z,19.83
2023-03-02T14:31:49.322Z,19.52
2023-03-02T14:34:18.562Z,18.50
2023-03-02T14:36:49.522Z,18.60
2023-03-02T14:39:22.206Z,19.02
2023-03-02T14:41:53.825Z,19.10
2023-03-02T14:44:23.037Z,18.69
2023-03-02T14:46:51.313Z,18.23
2023-03-02T14:49:20.171Z,17.29
2023-03-02T14:51:55.863Z,17.88
2023-03-02T14:54:24.195Z,18.84
2023-03-02T14:56:52.875Z,18.51
2023-03-02T14:59:21.296Z,18.23
2023-03-02T15:01:49.363Z,18.17
2023-03-02T15:04:17.709Z,17.33
2023-03-02T15:06:47.152Z,17.48
2023-03-02T15:09:16.811Z,17.23
2023-03-02T15:11:45.120Z,18.09
2023-03-02T15:14:13.417Z,18.39
2023-03-02T15:16:42.692Z,18.10
2023-03-02T15:19:11.075Z,18.52
2023-03-02T15:21:44.551Z,17.84
2023-03-02T15:24:13.279Z,17.80
2023-03-02T15:26:42.681Z,17.65
2023-03-02T15:29:11.003Z,17.89
2023-03-02T15:31:39.042Z,18.17
2023-03-02T15:34:07.660Z,18.15
2023-03-02T15:36:35.688Z,18.19
2023-03-02T15:39:04.940Z,18.15
2023-03-02T15:41:33.435Z,18.77
2023-03-02T15:44:03.311Z,18.72
2023-03-02T15:46:31.434Z,19.14
2023-03-02T15:48:59.722Z,19.25
2023-03-02T15:51:27.703Z,20.06
2023-03-02T15:53:55.984Z,19.97
2023-03-02T15:56:28.356Z,19.71
2023-03-02T15:58:58.723Z,20.33
2023-03-02T16:01:28.104Z,20.62
2023-03-02T16:03:59.756Z,20.98
2023-03-02T16:06:28.469Z,21.27
2023-03-02T16:08:56.857Z,23.58
2023-03-02T16:11:24.883Z,23.59
2023-03-02T16:13:53.749Z,23.53
2023-03-02T16:16:22.334Z,23.69
2023-03-02T16:18:52.317Z,25.02
2023-03-02T16:21:20.574Z,25.37
2023-03-02T16:23:48.956Z,25.87
2023-03-02T16:26:19.199Z,25.90
2023-03-02T16:28:47.779Z,26.75
2023-03-02T16:31:18.409Z,28.08
2023-03-02T16:33:47.905Z,27.15
2023-03-02T16:36:17.262Z,28.20
2023-03-02T16:38:45.769Z,29.76
2023-03-02T16:41:15.706Z,29.88
2023-03-02T16:43:46.129Z,30.50
2023-03-02T16:46:14.555Z,31.36
2023-03-02T16:48:43.538Z,32.23
2023-03-02T16:51:11.678Z,32.85
2023-03-02T16:53:41.663Z,32.71
2023-03-02T16:56:10.572Z,33.32
2023-03-02T16:58:39.709Z,33.65
2023-03-02T17:01:08.690Z,34.27
2023-03-02T17:03:37.306Z,33.33
2023-03-02T17:06:06.424Z,34.83
2023-03-02T17:08:34.893Z,34.61
2023-03-02T17:11:04.467Z,35.35
2023-03-02T17:13:32.901Z,35.73
2023-03-02T17:16:01.235Z,35.62
2023-03-02T17:18:30.726Z,36.32
2023-03-02T17:20:59.949Z,36.82
2023-03-02T17:23:28.829Z,36.74
2023-03-02T17:25:56.989Z,37.94
2023-03-02T17:28:26.626Z,37.98
2023-03-02T17:30:54.837Z,39.42
2023-03-02T17:33:23.388Z,38.71
2023-03-02T17:35:52.045Z,38.97
2023-03-02T17:38:20.454Z,40.19
2023-03-02T17:40:48.715Z,40.80
2023-03-02T17:43:17.030Z,41.23
2023-03-02T17:45:46.718Z,41.33
2023-03-02T17:48:15.116Z,40.47
2023-03-02T17:50:43.340Z,40.40
2023-03-02T17:53:11.697Z,40.82
2023-03-02T17:55:39.976Z,41.64
2023-03-02T17:58:08.331Z,41.53
2023-03-02T18:00:36.386Z,41.79
2023-03-02T18:03:06.174Z,42.53
2023-03-02T18:05:34.284Z,42.91
2023-03-02T18:08:02.628Z,43.46
2023-03-02T18:10:30.811Z,44.40
2023-03-02T18:12:59.182Z,44.96
2023-03-02T18:15:29.013Z,44.86
2023-03-02T18:17:57.316Z,44.85
2023-03-02T18:20:34.402Z,44.89
2023-03-02T18:23:03.204Z,44.71
2023-03-02T18:25:31.765Z,45.17
2023-03-02T18:28:00.138Z,45.52
2023-03-02T18:30:28.426Z,45.85
2023-03-02T18:32:56.734Z,45.31
2023-03-02T18:35:26.334Z,45.86
2023-03-02T18:37:54.688Z,46.52
2023-03-02T18:40:22.807Z,46.48
2023-03-02T18:42:51.147Z,47.02
2023-03-02T18:45:24.430Z,46.90
2023-03-02T18:47:53.143Z,47.08
2023-03-02T18:50:21.384Z,47.13
2023-03-02T18:52:52.809Z,47.01
2023-03-02T18:55:21.523Z,47.50
2023-03-02T18:57:50.009Z,47.45
2023-03-02T19:00:21.569Z,47.51
2023-03-02T19:02:49.932Z,47.58
2023-03-02T19:05:19.338Z,47.92
2023-03-02T19:07:47.951Z,48.24
2023-03-02T19:10:17.624Z,47.82
2023-03-02T19:12:46.345Z,48.18
2023-03-02T19:15:14.458Z,48.42
2023-03-02T19:17:43.611Z,48.21
2023-03-02T19:20:14.613Z,47.67
2023-03-02T19:22:43.063Z,47.76
2023-03-02T19:25:11.544Z,48.24
2023-03-02T19:27:41.641Z,49.22
2023-03-02T19:30:13.921Z,50.35
2023-03-02T19:32:42.304Z,51.13
2023-03-02T19:35:12.632Z,51.12
2023-03-02T19:37:41.145Z,50.56
2023-03-02T19:40:10.716Z,50.77
2023-03-02T19:42:40.026Z,51.04
2023-03-02T19:45:13.351Z,51.20
2023-03-02T19:47:41.615Z,51.21
2023-03-02T19:50:10.969Z,51.54
2023-03-02T19:52:40.106Z,51.57
2023-03-02T19:55:10.445Z,51.84
2023-03-02T19:57:39.871Z,51.97
2023-03-02T20:00:15.135Z,52.06
2023-03-02T20:02:45.037Z,52.22
2023-03-02T20:05:13.198Z,52.44
2023-03-02T20:07:42.131Z,52.82
2023-03-02T20:10:12.128Z,53.08
2023-03-02T20:12:40.440Z,53.39
2023-03-02T20:15:10.916Z,53.41
2023-03-02T20:17:39.241Z,53.86
2023-03-02T20:20:08.354Z,53.92
2023-03-02T20:22:37.000Z,55.63
2023-03-02T20:25:06.018Z,55.48
2023-03-02T20:27:34.418Z,55.53
2023-03-02T20:30:02.748Z,55.63
2023-03-02T20:32:32.499Z,54.85
2023-03-02T20:35:00.943Z,54.71
2023-03-02T20:37:29.969Z,54.66
2023-03-02T20:39:58.224Z,54.60
2023-03-02T20:42:27.402Z,54.18
2023-03-02T20:44:56.348Z,54.55
2023-03-02T20:47:24.979Z,54.36
2023-03-02T20:49:55.462Z,54.12
2023-03-02T20:52:23.965Z,54.71
2023-03-02T20:54:51.976Z,54.51
2023-03-02T20:57:21.900Z,54.41
2023-03-02T20:59:50.074Z,54.85
2023-03-02T21:02:20.063Z,55.02
2023-03-02T21:04:48.348Z,54.95
2023-03-02T21:07:18.108Z,55.10
2023-03-02T21:09:46.415Z,54.92
2023-03-02T21:12:14.870Z,54.92
2023-03-02T21:14:43.242Z,55.65
2023-03-02T21:17:11.613Z,55.81
2023-03-02T21:19:39.709Z,56.00
2023-03-02T21:22:08.069Z,56.22
2023-03-02T21:24:37.475Z,56.21
2023-03-02T21:27:07.264Z,56.02
2023-03-02T21:29:38.444Z,55.80
2023-03-02T21:32:08.007Z,56.52
2023-03-02T21:34:38.383Z,56.52
2023-03-02T21:37:07.047Z,56.84
2023-03-02T21:39:35.148Z,57.80
2023-03-02T21:42:05.159Z,58.23
2023-03-02T21:44:33.320Z,58.78
2023-03-02T21:47:01.819Z,58.72
2023-03-02T21:49:30.159Z,58.95
2023-03-02T21:51:58.561Z,58.87
2023-03-02T21:54:26.680Z,58.97
2023-03-02T21:56:55.026Z,59.70
2023-03-02T21:59:24.436Z,59.26
2023-03-02T22:01:52.877Z,59.43
2023-03-02T22:04:21.061Z,58.96
2023-03-02T22:06:49.533Z,59.26
2023-03-02T22:09:17.677Z,59.65
2023-03-02T22:11:46.344Z,58.52
2023-03-02T22:14:16.024Z,58.45
2023-03-02T22:16:47.994Z,58.78
2023-03-02T22:19:25.578Z,58.77
2023-03-02T22:21:54.714Z,58.75
2023-03-02T22:24:24.847Z,59.04
2023-03-02T22:27:00.096Z,58.77
2023-03-02T22:29:29.934Z,58.49
2023-03-02T22:32:07.739Z,59.34
2023-03-02T22:34:36.942Z,59.89
2023-03-02T22:37:11.558Z,59.84
2023-03-02T22:39:42.071Z,59.92
2023-03-02T22:42:13.606Z,60.25
2023-03-02T22:44:42.025Z,60.44
2023-03-02T22:47:16.514Z,60.92
2023-03-02T22:49:44.787Z,60.94
2023-03-02T22:52:15.497Z,61.13
2023-03-02T22:54:43.592Z,60.95
2023-03-02T22:57:28.994Z,60.65
2023-03-02T23:00:38.694Z,61.14
2023-03-02T23:03:17.443Z,61.12
2023-03-02T23:05:48.907Z,60.92
2023-03-02T23:08:21.353Z,60.81
2023-03-02T23:10:51.718Z,60.96
2023-03-02T23:13:21.782Z,60.63
2023-03-02T23:15:50.669Z,60.79
2023-03-02T23:18:24.098Z,60.96
2023-03-02T23:20:52.701Z,60.55
2023-03-02T23:23:22.734Z,60.76
2023-03-02T23:25:51.197Z,60.77
2023-03-02T23:28:19.545Z,60.77
2023-03-02T23:30:47.597Z,61.01
2023-03-02T23:33:15.861Z,61.45
2023-03-02T23:35:46.395Z,61.90
2023-03-02T23:38:14.606Z,61.72
2023-03-02T23:40:42.648Z,61.62
2023-03-02T23:43:10.902Z,61.41
2023-03-02T23:45:39.850Z,61.06
2023-03-02T23:48:08.228Z,61.00
2023-03-02T23:50:36.300Z,61.27
2023-03-02T23:53:05.932Z,61.44
2023-03-02T23:55:44.798Z,62.06
